Tiempo atmosférico en la estación meteorológica de Barx, València/Valencia (340 m.)



Fecha
DESCASC
Temp. máxima en grados centígrados (hora)
DESCASC
Temp. mínima en grados centígrados (hora)
DESCASC
Temp. media en grados centígrados
DESCASC
Racha de viento máxima en m/sg (hora)
DESCASC
Velocidad máxima media en intervalos de 10 minutos(hora)
DESCASC
Precipitaciones diarias en mm
DESCASC
Precipitaciones de 00:00 a 06:00 en mm
DESCASC
Precipitaciones de 06:00 a 12:00 en mm
DESCASC
Precipitaciones de 12:00 a 18:00 en mm
DESCASC
Precipitaciones de 18:00 a 24:00 en mm
DESCASC
06-12-2018 20.3 (14:20) 7.7 (23:59) 14 5.28 (16:40) 3.33 (16:40) 0 0 0 0 0
05-12-2018 23.7 (14:00) 6.2 (06:30) 15 3.33 (23:10) 1.67 (04:10) 0 0 0 0 0
04-12-2018 22.4 (14:40) 7.7 (07:20) 15 6.67 (14:50) 4.17 (16:10) 0 0 0 0 0
03-12-2018 22.8 (14:30) 12.1 (00:00) 17.4 8.61 (02:40) 4.17 (02:40) 0 0 0 0 0
02-12-2018 20.7 (15:10) 10.4 (00:00) 15.6 8.61 (23:20) 3.89 (13:00) 0 0 0 0 0
01-12-2018 16 (15:50) 6.3 (00:00) 11.2 6.39 (23:30) 3.06 (14:20) 0 0 0 0 0
30-11-2018 16.7 (15:10) 6 (00:00) 11.4 8.89 (10:40) 4.17 (13:00) 0 0 0 0 0
29-11-2018 20.2 (14:20) 3.9 (00:00) 12.1 3.89 (05:10) 2.78 (05:10) 0 0 0 0 0
28-11-2018 19.2 (15:10) 6.1 (00:00) 12.7 5.28 (12:20) 2.78 (04:10) 0 0 0 0 0
27-11-2018 17.1 (15:00) 6.6 (00:00) 11.9 7.22 (13:20) 3.89 (15:10) 0 0 0 0 0
25-11-2018 18.2 (15:10) 9.1 (00:00) 13.7 12.78 (13:50) 5 (13:10) 0 0 0 0 0
24-11-2018 14 (15:50) 6 (00:00) 10 6.94 (23:00) 3.33 (16:20) 0 0 0 0 0
23-11-2018 15 (14:30) 7.4 (00:00) 11.2 6.11 (15:30) 2.78 (15:30) 0.4 0 0.4 0 0
22-11-2018 14.3 (15:20) 9.2 (00:00) 11.8 3.61 (23:59) 2.22 (18:00) 0 0 0 0 0
21-11-2018 16.3 (14:10) 9.9 (00:00) 13.1 11.39 (02:20) 3.61 (02:10) 0 0 0 0 0
20-11-2018 16.9 (12:10) 9.5 (00:00) 13.2 11.39 (19:50) 4.17 (17:40) 4.4 0 0 4 0.4
19-11-2018 13.3 (01:20) 10.1 (00:00) 11.7 16.39 (12:30) 7.78 (12:30) 174.4 0.4 83.6 89.8 0.6
18-11-2018 14.2 (12:50) 11.1 (02:30) 12.7 7.22 (11:40) 3.33 (12:10) 0 0 0 0 0
17-11-2018 14.5 (00:00) 12.5 (21:20) 13.5 6.11 (06:50) 3.06 (03:30) 6 0 6 0 0
16-11-2018 15.1 (01:00) 12 (05:50) 13.6 11.11 (04:30) 5.28 (05:30) 206.4 164.6 38 0 3.8

Gráficas

Temp. máximas Temp. mínimas Temp. medias Precipitaciones Rachas de viento máximas Velocidades máximas media en intervalos de 10 minutos

Datos horarios

Fecha y hora oficial Temperatura (ºC) Velocidad del viento (km/h) Dirección del viento Racha (km/h) Dirección de racha Precipitación (mm) Presión (hPa) Tendencia (hPa) Humedad (%)
2018-12-09 23:00:00 13.6 4 Sudeste 13 Nordeste 0 -- -- 64
2018-12-09 22:00:00 10.1 3 Noroeste 10 Noroeste 0 -- -- 84
2018-12-09 21:00:00 8.7 0 Calma 5 Noroeste 0 -- -- 89
2018-12-09 20:00:00 9.6 2 Noroeste 8 Norte 0 -- -- 85
2018-12-09 19:00:00 10.7 2 Sur 5 Sur 0 -- -- 80
2018-12-09 18:00:00 13.5 0 Calma 3 Este 0 -- -- 70
2018-12-09 17:00:00 18.3 2 Noroeste 4 Norte 0 -- -- 56
2018-12-09 16:00:00 20.3 2 Sudoeste 12 Sudoeste 0 -- -- 45
2018-12-09 15:00:00 21.8 3 Oeste 14 Oeste 0 -- -- 40
2018-12-09 14:00:00 21.3 7 Sudoeste 15 Oeste 0 -- -- 40
2018-12-09 13:00:00 20.3 5 Oeste 12 Sur 0 -- -- 40
2018-12-09 12:00:00 18.7 4 Nordeste 10 Norte 0 -- -- 42
2018-12-09 11:00:00 16.3 6 Noroeste 12 Oeste 0 -- -- 49
2018-12-09 10:00:00 16.2 3 Sur 10 Este 0 -- -- 51
2018-12-09 09:00:00 12.9 4 Norte 14 Este 0 -- -- 56
2018-12-09 08:00:00 13.1 8 Nordeste 15 Este 0 -- -- 54
2018-12-09 07:00:00 10.9 4 Norte 6 Nordeste 0 -- -- 63
2018-12-09 06:00:00 8.8 3 Sudeste 12 Oeste 0 -- -- 77
2018-12-09 05:00:00 9.5 0 Calma 8 Sudoeste 0 -- -- 74
2018-12-09 04:00:00 11.5 2 Nordeste 14 Sudeste 0 -- -- 63
2018-12-09 03:00:00 12.5 9 Este 18 Nordeste 0 -- -- 60
2018-12-09 02:00:00 9.6 2 Este 8 Este 0 -- -- 77
2018-12-09 01:00:00 11.9 7 Sudeste 14 Sudeste 0 -- -- 67
2018-12-09 00:00:00 11.1 7 Sudeste 12 Sudeste 0 -- -- 72
2018-12-08 23:00:00 10.5 2 Sudeste 12 Este 0 -- -- 75
2018-12-08 22:00:00 12.1 4 Sudeste 13 Nordeste 0 -- -- 71
2018-12-08 21:00:00 11.7 6 Sudeste 13 Sudeste 0 -- -- 73
2018-12-08 20:00:00 11.2 5 Sudeste 11 Sudeste 0 -- -- 78
2018-12-08 19:00:00 11.3 8 Sudeste 15 Sudeste 0 -- -- 86
2018-12-08 18:00:00 12 10 Sudeste 20 Sudeste 0 -- -- 84
2018-12-08 17:00:00 14.3 11 Sudeste 19 Sudeste 0 -- -- 76
2018-12-08 16:00:00 15.9 2 Sur 12 Sudeste 0 -- -- 67
2018-12-08 15:00:00 17.2 5 Sudeste 10 Sudeste 0 -- -- 60
2018-12-08 14:00:00 16.2 4 Norte 11 Sudoeste 0 -- -- 61
2018-12-08 13:00:00 16.7 5 Sudoeste 12 Oeste 0 -- -- 60
2018-12-08 12:00:00 15.4 3 Sudoeste 12 Oeste 0 -- -- 61
2018-12-08 11:00:00 14.2 2 Oeste 12 Sudoeste 0 -- -- 63
2018-12-08 10:00:00 12.6 2 Este 9 Este 0 -- -- 70
2018-12-08 09:00:00 9.5 5 Sudeste 12 Este 0 -- -- 83
2018-12-08 08:00:00 8.2 3 Este 13 Nordeste 0 -- -- 86
2018-12-08 07:00:00 7.6 4 Sudeste 8 Sur 0 -- -- 90
2018-12-08 06:00:00 8.2 4 Sudeste 7 Sur 0 -- -- 85
2018-12-08 05:00:00 9.8 3 Sudeste 6 Norte 0 -- -- 79
2018-12-08 04:00:00 12.1 3 Norte 9 Oeste 0 -- -- 70
2018-12-08 03:00:00 14 7 Oeste 19 Oeste 0 -- -- 62
2018-12-08 02:00:00 14.2 6 Noroeste 24 Oeste 0 -- -- 60
2018-12-08 01:00:00 15 9 Noroeste 19 Oeste 0 -- -- 54
2018-12-08 00:00:00 14.9 8 Noroeste 18 Oeste 0 -- -- 53
2018-12-07 23:00:00 14.4 5 Noroeste 17 Oeste 0 -- -- 55
2018-12-07 22:00:00 13.4 4 Nordeste 12 Nordeste 0 -- -- 61
2018-12-07 21:00:00 12.2 0 Calma 6 Este 0 -- -- 66
2018-12-07 20:00:00 13.3 7 Este 11 Sudeste 0 -- -- 62
2018-12-07 19:00:00 12.5 4 Este 9 Sudeste 0 -- -- 66
2018-12-07 18:00:00 12.4 2 Sudeste 8 Oeste 0 -- -- 73
2018-12-07 17:00:00 16.3 2 Este 7 Sur 0 -- -- 62
2018-12-07 16:00:00 19.1 4 Noroeste 11 Oeste 0 -- -- 47
2018-12-07 15:00:00 19.8 5 Oeste 10 Sur 0 -- -- 45
2018-12-07 14:00:00 19 6 Oeste 18 Sudoeste 0 -- -- 48
2018-12-07 13:00:00 18.5 9 Sur 17 Sudoeste 0 -- -- 51
2018-12-07 12:00:00 16.1 4 Oeste 10 Oeste 0 -- -- 62
2018-12-07 11:00:00 13.6 3 Oeste 10 Oeste 0 -- -- 76
2018-12-07 10:00:00 11.1 2 Sur 6 Sudeste 0 -- -- 100
2018-12-07 09:00:00 8 4 Este 6 Sudeste 0 -- -- 100
2018-12-07 08:00:00 7.8 2 Nordeste 6 Sudeste 0 -- -- 100
2018-12-07 07:00:00 9.9 0 Calma 5 Este 0 -- -- 100
2018-12-07 06:00:00 10 0 Calma 10 Oeste 0 -- -- 100
2018-12-07 05:00:00 7.7 2 Norte 5 Sudeste 0 -- -- 100
2018-12-07 04:00:00 6.7 0 Calma 5 Nordeste 0 -- -- 99
2018-12-07 03:00:00 6.4 3 Sudeste 7 Sudeste 0 -- -- 98
2018-12-07 02:00:00 6.5 0 Calma 9 Sudeste 0 -- -- 95
2018-12-07 01:00:00 7 3 Sudeste 7 Sudeste 0 -- -- 96
2018-12-07 00:00:00 7.7 2 Sudeste 5 Este 0 -- -- 91
2018-12-06 23:00:00 9.1 3 Sudeste 6 Sudeste 0 -- -- 88
2018-12-06 22:00:00 10.5 4 Sudeste 12 Sudeste 0 -- -- 84
2018-12-06 21:00:00 11.4 8 Sudeste 14 Sudeste 0 -- -- 80
2018-12-06 20:00:00 11.3 6 Sudeste 13 Sudeste 0 -- -- 82
2018-12-06 19:00:00 12.4 5 Sudeste 10 Sudeste 0 -- -- 80
2018-12-06 18:00:00 13.3 5 Sudeste 17 Sudeste 0 -- -- 82
2018-12-06 17:00:00 15 11 Sur 19 Sudeste 0 -- -- 78
2018-12-06 16:00:00 18.5 5 Sur 10 Sur 0 -- -- 65
2018-12-06 15:00:00 19.6 2 Noroeste 12 Noroeste 0 -- -- 60
2018-12-06 14:00:00 19.4 5 Nordeste 13 Norte 0 -- -- 48
2018-12-06 13:00:00 19.1 0 Calma 13 Sudoeste 0 -- -- 50
2018-12-06 12:00:00 19.3 4 Sudoeste 12 Oeste 0 -- -- 51
2018-12-06 11:00:00 17.4 4 Oeste 8 Oeste 0 -- -- 53
2018-12-06 10:00:00 14.7 0 Calma 6 Sudeste 0 -- -- 62
2018-12-06 09:00:00 9.3 3 Sudeste 8 Este 0 -- -- 84
2018-12-06 08:00:00 10.9 2 Norte 10 Sudeste 0 -- -- 75
2018-12-06 07:00:00 13.6 8 Sudeste 11 Sudeste 0 -- -- 65
2018-12-06 06:00:00 14.1 3 Sur 9 Este 0 -- -- 64
2018-12-06 05:00:00 13.7 0 Calma 9 Noroeste 0 -- -- 63
2018-12-06 04:00:00 14.3 5 Norte 9 Norte 0 -- -- 59
2018-12-06 03:00:00 13.4 4 Oeste 9 Norte 0 -- -- 61
2018-12-06 02:00:00 15.4 4 Norte 11 Noroeste 0 -- -- 54
2018-12-06 01:00:00 14.5 3 Sur 14 Nordeste 0 -- -- 61
2018-12-06 00:00:00 12.9 2 Este 12 Noroeste 0 -- -- 70
2018-12-05 23:00:00 11.2 3 Oeste 8 Sur 0 -- -- 80
2018-12-05 22:00:00 10.9 3 Noroeste 6 Sudeste 0 -- -- 81
2018-12-05 21:00:00 11 5 Sudeste 6 Este 0 -- -- 83
2018-12-05 20:00:00 12.5 0 Calma 9 Sudeste 0 -- -- 77
2018-12-05 19:00:00 14.1 5 Sudeste 11 Sudeste 0 -- -- 71
2018-12-05 18:00:00 15.7 0 Calma 9 Sudeste 0 -- -- 69
2018-12-05 17:00:00 18.4 6 Sudeste 9 Sudeste 0 -- -- 62
2018-12-05 16:00:00 22.1 0 Calma 7 Sur 0 -- -- 55
2018-12-05 15:00:00 22.3 2 Oeste 7 Noroeste 0 -- -- 50
2018-12-05 14:00:00 23.7 2 Este 6 Sudoeste 0 -- -- 42
2018-12-05 13:00:00 21.3 2 Sur 7 Noroeste 0 -- -- 55
2018-12-05 12:00:00 19.9 2 Oeste 6 Noroeste 0 -- -- 58
2018-12-05 11:00:00 17.6 0 Calma 5 Nordeste 0 -- -- 59
2018-12-05 10:00:00 13.3 0 Calma 6 Sudeste 0 -- -- 79
2018-12-05 09:00:00 8.3 2 Sudeste 8 Sudeste 0 -- -- 93
2018-12-05 08:00:00 7.8 6 Sudeste 8 Sudeste 0 -- -- 94
2018-12-05 07:00:00 7.1 5 Sudeste 8 Sudeste 0 -- -- 99
2018-12-05 06:00:00 6.5 4 Sudeste 6 Sudeste 0 -- -- 97
2018-12-05 05:00:00 7.2 0 Calma 10 Sudeste 0 -- -- 94
2018-12-05 04:00:00 7.4 4 Sudeste 6 Sudeste 0 -- -- 95
2018-12-05 03:00:00 8.4 5 Sudeste 8 Sudeste 0 -- -- 94
2018-12-05 02:00:00 9.1 4 Sudeste 6 Sudeste 0 -- -- 93
2018-12-05 01:00:00 9.2 2 Sudeste 6 Sudeste 0 -- -- 93
2018-12-05 00:00:00 9 3 Sudeste 6 Sudeste 0 -- -- 93
2018-12-04 23:00:00 9.3 2 Este 5 Nordeste 0 -- -- 92
2018-12-04 22:00:00 10.3 2 Norte 8 Nordeste 0 -- -- 87
2018-12-04 21:00:00 10.9 2 Sudeste 6 Sudeste 0 -- -- 85
2018-12-04 20:00:00 12.3 4 Sudeste 8 Sudeste 0 -- -- 80
2018-12-04 19:00:00 13.5 4 Sudeste 10 Sudeste 0 -- -- 77
2018-12-04 18:00:00 14.8 6 Sudeste 14 Sur 0 -- -- 71
2018-12-04 17:00:00 17.2 8 Sudeste 22 Sudeste 0 -- -- 62
2018-12-04 16:00:00 20.5 14 Sudeste 24 Sudeste 0 -- -- 50
2018-12-04 15:00:00 21.9 14 Sudeste 24 Sudeste 0 -- -- 47
2018-12-04 14:00:00 20.4 5 Norte 11 Norte 0 -- -- 48
2018-12-04 13:00:00 20.2 8 Noroeste 11 Noroeste 0 -- -- 47
2018-12-04 12:00:00 20.4 4 Oeste 8 Oeste 0 -- -- 50
2018-12-04 11:00:00 19 0 Calma 5 Sudeste 0 -- -- 53
2018-12-04 10:00:00 14.6 3 Sudeste 7 Sudeste 0 -- -- 76
2018-12-04 09:00:00 9.6 4 Sudeste 9 Sudeste 0 -- -- 86
2018-12-04 08:00:00 9.4 5 Sudeste 10 Sudeste 0 -- -- 82
2018-12-04 07:00:00 7.9 2 Este 6 Sudeste 0 -- -- 86
2018-12-04 06:00:00 8.5 4 Este 7 Este 0 -- -- 82
2018-12-04 05:00:00 8.8 3 Sudeste 6 Sudoeste 0 -- -- 76
2018-12-04 04:00:00 10.5 3 Sudeste 8 Nordeste 0 -- -- 69
2018-12-04 03:00:00 13.4 2 Noroeste 9 Noroeste 0 -- -- 53
2018-12-04 02:00:00 13.7 3 Norte 11 Noroeste 0 -- -- 45
2018-12-04 01:00:00 14.5 4 Noroeste 12 Sudoeste 0 -- -- 42
2018-12-04 00:00:00 14.5 3 Norte 11 Sudoeste 0 -- -- 43
2018-12-03 23:00:00 13.9 5 Nordeste 12 Norte 0 -- -- 48
2018-12-03 22:00:00 15.7 5 Nordeste 14 Nordeste 0 -- -- 42
2018-12-03 21:00:00 14 5 Nordeste 10 Nordeste 0 -- -- 47
2018-12-03 20:00:00 14.5 0 Calma 11 Este 0 -- -- 51
2018-12-03 19:00:00 14.3 2 Nordeste 9 Nordeste 0 -- -- 51
2018-12-03 18:00:00 15.5 0 Calma 6 Norte 0 -- -- 51
2018-12-03 17:00:00 19 3 Sudeste 15 Oeste 0 -- -- 39
2018-12-03 16:00:00 21.2 8 Oeste 22 Oeste 0 -- -- 37
2018-12-03 15:00:00 21.9 4 Oeste 18 Noroeste 0 -- -- 40
2018-12-03 14:00:00 21.6 5 Oeste 22 Sudoeste 0 -- -- 37
2018-12-03 13:00:00 20.5 11 Sudoeste 26 Oeste 0 -- -- 37
2018-12-03 12:00:00 19.1 9 Oeste 23 Oeste 0 -- -- 38
2018-12-03 11:00:00 18.2 6 Oeste 17 Sur 0 -- -- 39
2018-12-03 10:00:00 16.2 5 Sur 24 Sudoeste 0 -- -- 45
2018-12-03 09:00:00 14 8 Este 20 Este 0 -- -- 50
2018-12-03 08:00:00 14.2 5 Noroeste 19 Sudoeste 0 -- -- 47
2018-12-03 07:00:00 13.8 4 Noroeste 19 Oeste 0 -- -- 50
2018-12-03 06:00:00 13.7 8 Noroeste 22 Oeste 0 -- -- 50
2018-12-03 05:00:00 13.9 10 Oeste 22 Oeste 0 -- -- 53
2018-12-03 04:00:00 13.9 3 Noroeste 17 Oeste 0 -- -- 55
2018-12-03 03:00:00 14.8 12 Sudoeste 31 Sudoeste 0 -- -- 54
2018-12-03 02:00:00 15.1 10 Sudoeste 28 Sudeste 0 -- -- 53
2018-12-03 01:00:00 15.8 10 Sudoeste 30 Oeste 0 -- -- 51
2018-12-03 00:00:00 15.9 7 Sudoeste 31 Sudoeste 0 -- -- 50
2018-12-02 23:00:00 16.2 7 Oeste 22 Sudoeste 0 -- -- 46
2018-12-02 22:00:00 16 6 Noroeste 21 Sudoeste 0 -- -- 49
2018-12-02 21:00:00 15.3 2 Noroeste 23 Sudoeste 0 -- -- 58
2018-12-02 20:00:00 15 4 Nordeste 14 Oeste 0 -- -- 57
2018-12-02 19:00:00 15.5 2 Norte 12 Oeste 0 -- -- 56
2018-12-02 18:00:00 16 2 Noroeste 12 Oeste 0 -- -- 57
2018-12-02 17:00:00 18.3 3 Nordeste 10 Sudeste 0 -- -- 56
2018-12-02 16:00:00 19.9 3 Sudoeste 17 Oeste 0 -- -- 49
2018-12-02 15:00:00 20.4 4 Sudoeste 19 Oeste 0 -- -- 44
2018-12-02 14:00:00 19.7 8 Oeste 26 Sudoeste 0 -- -- 46
2018-12-02 13:00:00 18.5 14 Sudoeste 28 Sudoeste 0 -- -- 46
2018-12-02 12:00:00 17 10 Sudoeste 22 Sudoeste 0 -- -- 49
2018-12-02 11:00:00 15.5 3 Norte 19 Oeste 0 -- -- 52
2018-12-02 10:00:00 13.2 6 Noroeste 14 Oeste 0 -- -- 57
2018-12-02 09:00:00 10.8 4 Sudeste 24 Sudoeste 0 -- -- 66
2018-12-02 08:00:00 10.8 7 Sur 21 Sur 0 -- -- 64
2018-12-02 07:00:00 10.5 5 Sur 20 Sudoeste 0 -- -- 66
2018-12-02 06:00:00 10.7 2 Sur 14 Este 0 -- -- 65
2018-12-02 05:00:00 11 3 Nordeste 18 Sur 0 -- -- 66
2018-12-02 04:00:00 11.3 12 Sur 27 Sur 0 -- -- 65
2018-12-02 03:00:00 11.7 4 Noroeste 23 Oeste 0 -- -- 63
2018-12-02 02:00:00 11.9 9 Oeste 19 Oeste 0 -- -- 63
2018-12-02 01:00:00 11.8 4 Oeste 17 Oeste 0 -- -- 64
2018-12-02 00:00:00 12.1 5 Noroeste 23 Oeste 0 -- -- 63
2018-12-01 23:00:00 12 6 Noroeste 17 Oeste 0 -- -- 62
2018-12-01 22:00:00 11.8 4 Noroeste 14 Oeste 0 -- -- 60
2018-12-01 21:00:00 11.8 6 Noroeste 16 Oeste 0 -- -- 63
2018-12-01 20:00:00 11.8 0 Calma 9 Nordeste 0 -- -- 60
2018-12-01 19:00:00 12.1 3 Norte 8 Oeste 0 -- -- 57
2018-12-01 18:00:00 12.6 2 Noroeste 12 Noroeste 0 -- -- 60
2018-12-01 17:00:00 13.8 4 Sudeste 6 Sudeste 0 -- -- 55
2018-12-01 16:00:00 15.4 3 Oeste 19 Oeste 0 -- -- 47
2018-12-01 15:00:00 15.8 6 Sudoeste 21 Oeste 0 -- -- 48
2018-12-01 14:00:00 15.3 6 Oeste 17 Oeste 0 -- -- 46
2018-12-01 13:00:00 14.6 7 Oeste 19 Oeste 0 -- -- 49
2018-12-01 12:00:00 13 4 Noroeste 17 Oeste 0 -- -- 49
2018-12-01 11:00:00 11.3 6 Noroeste 18 Noroeste 0 -- -- 51
2018-12-01 10:00:00 8.9 2 Noroeste 7 Noroeste 0 -- -- 64
2018-12-01 09:00:00 8.9 4 Este 11 Este 0 -- -- 60
2018-12-01 08:00:00 8 5 Sudeste 18 Este 0 -- -- 63
2018-12-01 07:00:00 7.4 6 Sudeste 14 Este 0 -- -- 66
2018-12-01 06:00:00 7.5 5 Sudeste 15 Sudeste 0 -- -- 67
2018-12-01 05:00:00 7.6 6 Sur 17 Sudoeste 0 -- -- 66
2018-12-01 04:00:00 7.1 4 Sudeste 10 Sudeste 0 -- -- 69
2018-12-01 03:00:00 7.2 5 Sudeste 13 Sudeste 0 -- -- 70
2018-12-01 02:00:00 6.3 4 Sudeste 7 Sudeste 0 -- -- 75
2018-12-01 01:00:00 7 2 Este 5 Sudeste 0 -- -- 72
2018-12-01 00:00:00 7.4 2 Este 9 Nordeste 0 -- -- 73
2018-11-30 23:00:00 7.2 0 Calma 8 Oeste 0 -- -- 78
2018-11-30 22:00:00 7.6 0 Calma 11 Este 0 -- -- 73
2018-11-30 21:00:00 6.8 8 Este 13 Sudeste 0 -- -- 79
2018-11-30 20:00:00 6.7 0 Calma 6 Sudeste 0 -- -- 86
2018-11-30 19:00:00 7.9 3 Sudeste 5 Sudeste 0 -- -- 82
2018-11-30 18:00:00 10.5 2 Sudeste 6 Noroeste 0 -- -- 75
2018-11-30 17:00:00 13.8 5 Noroeste 18 Oeste 0 -- -- 63
2018-11-30 16:00:00 15.8 11 Oeste 24 Noroeste 0 -- -- 55
2018-11-30 15:00:00 16.6 9 Noroeste 31 Oeste 0 -- -- 54
2018-11-30 14:00:00 15.9 12 Oeste 26 Noroeste 0 -- -- 56
2018-11-30 13:00:00 15.2 15 Oeste 28 Oeste 0 -- -- 60
2018-11-30 12:00:00 14.4 11 Sudoeste 28 Noroeste 0 -- -- 68
2018-11-30 11:00:00 13.3 14 Oeste 32 Oeste 0 -- -- 72
2018-11-30 10:00:00 11.7 10 Oeste 25 Noroeste 0 -- -- 77
2018-11-30 09:00:00 11.3 3 Sudoeste 11 Sudoeste 0 -- -- 75
2018-11-30 08:00:00 11.2 8 Noroeste 21 Noroeste 0 -- -- 74
2018-11-30 07:00:00 11.6 8 Noroeste 23 Oeste 0 -- -- 66
2018-11-30 06:00:00 11.7 7 Noroeste 20 Noroeste 0 -- -- 57
2018-11-30 05:00:00 9.5 3 Noroeste 8 Sudoeste 0 -- -- 58
2018-11-30 04:00:00 10.9 4 Sur 19 Sudoeste 0 -- -- 51
2018-11-30 03:00:00 9.3 2 Este 7 Oeste 0 -- -- 56
2018-11-30 02:00:00 8.5 3 Noroeste 10 Noroeste 0 -- -- 68
2018-11-30 01:00:00 8.9 4 Sudeste 8 Sudeste 0 -- -- 54
2018-11-30 00:00:00 8.9 0 Calma 8 Este 0 -- -- 66
2018-11-29 23:00:00 10.3 3 Nordeste 10 Nordeste 0 -- -- 50
2018-11-29 22:00:00 7.4 0 Calma 7 Este 0 -- -- 75
2018-11-29 21:00:00 6.6 2 Sudeste 6 Sudeste 0 -- -- 78
2018-11-29 20:00:00 7.7 2 Sur 8 Sudeste 0 -- -- 79
2018-11-29 19:00:00 8.6 4 Sudeste 6 Sudeste 0 -- -- 73
2018-11-29 18:00:00 11.3 5 Sudeste 8 Sudeste 0 -- -- 62
2018-11-29 17:00:00 14.4 4 Sudeste 10 Sur 0 -- -- 56
2018-11-29 16:00:00 18.1 2 Sur 6 Sur 0 -- -- 40
2018-11-29 15:00:00 18.6 3 Noroeste 9 Noroeste 0 -- -- 36
2018-11-29 14:00:00 20.1 5 Sudeste 10 Sur 0 -- -- 29
2018-11-29 13:00:00 18.2 2 Sur 8 Oeste 0 -- -- 31
2018-11-29 12:00:00 16.8 3 Oeste 5 Noroeste 0 -- -- 30
2018-11-29 11:00:00 14.7 0 Calma 6 Sudeste 0 -- -- 34
2018-11-29 10:00:00 10.7 2 Sudeste 9 Nordeste 0 -- -- 54
2018-11-29 09:00:00 5.2 4 Sudeste 9 Sudeste 0 -- -- 63
2018-11-29 08:00:00 7.4 2 Sudeste 10 Sudoeste 0 -- -- 54
2018-11-29 07:00:00 6.5 5 Sudeste 14 Sudeste 0 -- -- 52
2018-11-29 06:00:00 6.9 9 Sudeste 14 Sudeste 0 -- -- 47
2018-11-29 05:00:00 4.5 6 Sudeste 12 Sudeste 0 -- -- 66
2018-11-29 04:00:00 4.1 4 Sudeste 10 Sudeste 0 -- -- 79
2018-11-29 03:00:00 5.4 4 Sudeste 10 Sudeste 0 -- -- 73
2018-11-29 02:00:00 5.6 2 Sudeste 7 Sur 0 -- -- 76
2018-11-29 01:00:00 9.2 4 Norte 11 Noroeste 0 -- -- 51
2018-11-29 00:00:00 6.1 0 Calma 7 Este 0 -- -- 76
2018-11-28 23:00:00 6.5 2 Nordeste 9 Sudeste 0 -- -- 72
2018-11-28 22:00:00 8.2 3 Sudeste 12 Este 0 -- -- 70
2018-11-28 21:00:00 7.2 3 Sudeste 5 Sudoeste 0 -- -- 84
2018-11-28 14:00:00 -- -- -- -- -- -- -- -- --
2018-11-28 13:00:00 17.6 8 Oeste 19 Sudoeste 0 -- -- 39
2018-11-28 12:00:00 16.3 5 Oeste 15 Oeste 0 -- -- 41
2018-11-28 11:00:00 15.1 5 Oeste 13 Oeste 0 -- -- 47
2018-11-28 10:00:00 13.7 3 Sudeste 12 Sudoeste 0 -- -- 51
2018-11-28 09:00:00 10.6 8 Este 13 Este 0 -- -- 59
2018-11-28 08:00:00 10.4 4 Sudeste 14 Este 0 -- -- 58
2018-11-28 07:00:00 10.3 6 Este 14 Sudeste 0 -- -- 57
2018-11-28 06:00:00 10.3 6 Este 17 Sudeste 0 -- -- 57
2018-11-28 05:00:00 10.4 7 Este 16 Este 0 -- -- 54
2018-11-28 04:00:00 10.3 9 Sudeste 17 Sur 0 -- -- 57
2018-11-28 03:00:00 10.3 7 Sudeste 13 Sudeste 0 -- -- 57
2018-11-28 02:00:00 10.1 6 Sudeste 12 Sudeste 0 -- -- 60
2018-11-28 01:00:00 10.1 5 Sur 13 Sudoeste 0 -- -- 62
2018-11-28 00:00:00 10.4 6 Este 16 Sudoeste 0 -- -- 62
2018-11-27 23:00:00 10.9 6 Sur 16 Sudoeste 0 -- -- 61
2018-11-27 22:00:00 11.2 8 Sur 18 Sur 0 -- -- 58
2018-11-27 21:00:00 10.8 3 Este 8 Sudeste 0 -- -- 62
2018-11-27 20:00:00 11.7 5 Sudeste 12 Norte 0 -- -- 54
2018-11-27 19:00:00 10.4 2 Oeste 7 Sudoeste 0 -- -- 60
2018-11-27 18:00:00 12.1 0 Calma 6 Noroeste 0 -- -- 64
2018-11-27 17:00:00 14.8 4 Noroeste 22 Oeste 0 -- -- 48
2018-11-27 16:00:00 16.7 9 Oeste 25 Noroeste 0 -- -- 40
2018-11-27 15:00:00 17.1 13 Oeste 25 Oeste 0 -- -- 40
2018-11-27 14:00:00 16.2 10 Noroeste 26 Noroeste 0 -- -- 43
2018-11-27 13:00:00 15.5 7 Sudoeste 24 Oeste 0 -- -- 48
2018-11-27 12:00:00 14.6 9 Oeste 23 Oeste 0 -- -- 51
2018-11-27 11:00:00 12.9 9 Oeste 19 Sudoeste 0 -- -- 55
2018-11-27 10:00:00 11 5 Noroeste 18 Oeste 0 -- -- 62
2018-11-27 09:00:00 8.8 2 Norte 10 Noroeste 0 -- -- 69
2018-11-27 08:00:00 7.5 3 Norte 6 Norte 0 -- -- 74
2018-11-27 07:00:00 7.9 2 Norte 10 Oeste 0 -- -- 74
2018-11-27 06:00:00 8.4 4 Noroeste 13 Noroeste 0 -- -- 72
2018-11-27 05:00:00 8.8 5 Noroeste 19 Oeste 0 -- -- 68
2018-11-27 04:00:00 8.3 7 Norte 16 Noroeste 0 -- -- 73
2018-11-27 03:00:00 8.6 12 Noroeste 19 Noroeste 0 -- -- 72
2018-11-27 02:00:00 9.3 13 Noroeste 21 Noroeste 0 -- -- 69
2018-11-27 01:00:00 9.9 9 Norte 16 Noroeste 0 -- -- 67
2018-11-27 00:00:00 9.4 9 Noroeste 17 Noroeste 0 -- -- 69
2018-11-26 23:00:00 9.9 7 Noroeste 15 Noroeste 0 -- -- 66
2018-11-26 22:00:00 10.5 11 Noroeste 22 Noroeste 0 -- -- 64
2018-11-26 21:00:00 10.6 9 Noroeste 15 Noroeste 0 -- -- 65
2018-11-26 20:00:00 10.9 6 Norte 19 Norte 0 -- -- 63
2018-11-26 19:00:00 11 9 Noroeste 22 Noroeste 0 -- -- 64
2018-11-26 18:00:00 12.4 13 Noroeste 33 Noroeste 0 -- -- 57
2018-11-26 17:00:00 13.7 21 Noroeste 37 Noroeste 0 -- -- 53
2018-11-26 16:00:00 14.7 21 Noroeste 37 Oeste 0 -- -- 51
2018-11-26 15:00:00 14.9 21 Noroeste 40 Oeste 0 -- -- 51
2018-11-26 14:00:00 13.9 19 Noroeste 45 Noroeste 0 -- -- 54
2018-11-26 13:00:00 13.9 23 Noroeste 49 Noroeste 0 -- -- 56
2018-11-26 12:00:00 13.3 21 Noroeste 46 Oeste 0 -- -- 56
2018-11-26 11:00:00 12.7 23 Noroeste 50 Oeste 0 -- -- 56
2018-11-26 10:00:00 11.6 24 Noroeste 46 Noroeste 0 -- -- 58
2018-11-26 09:00:00 10.6 21 Noroeste 62 Oeste 0 -- -- 57
2018-11-26 08:00:00 11.5 14 Noroeste 51 Noroeste 0 -- -- 52
2018-11-26 07:00:00 12.8 18 Noroeste 53 Oeste 0 -- -- 61
2018-11-26 06:00:00 14.2 16 Oeste 49 Oeste 0 -- -- 60
2018-11-26 05:00:00 15.9 22 Oeste 47 Oeste 0 -- -- 69
2018-11-26 04:00:00 15.5 10 Oeste 25 Sudoeste 0 -- -- 70
2018-11-26 03:00:00 14.3 10 Sur 24 Sudeste 0.2 -- -- 74
2018-11-26 02:00:00 13.9 6 Sur 19 Sudoeste 0.2 -- -- 81
2018-11-26 01:00:00 15.5 4 Sudoeste 21 Sudoeste 0 -- -- 67
2018-11-26 00:00:00 15.4 6 Sur 24 Sudoeste 0 -- -- 67
2018-11-25 23:00:00 15.3 3 Sudoeste 17 Sudoeste 0 -- -- 69
2018-11-25 22:00:00 15.6 6 Sudoeste 26 Sudoeste 0 -- -- 68
2018-11-25 21:00:00 15.3 5 Sur 21 Sudoeste 0 -- -- 69
2018-11-25 20:00:00 15.7 6 Norte 24 Sur 0 -- -- 64
2018-11-25 19:00:00 15.4 5 Sur 18 Noroeste 0 -- -- 65
2018-11-25 18:00:00 15.7 7 Norte 37 Oeste 0 -- -- 69
2018-11-25 17:00:00 16.8 5 Noroeste 24 Sudoeste 0 -- -- 62
2018-11-25 16:00:00 17.5 10 Noroeste 27 Oeste 0 -- -- 56
2018-11-25 15:00:00 18.1 8 Oeste 29 Sudoeste 0 -- -- 60
2018-11-25 14:00:00 17.5 15 Oeste 46 Oeste 0 -- -- 61
2018-11-25 13:00:00 17.6 14 Oeste 39 Oeste 0 -- -- 59
2018-11-25 12:00:00 16.5 10 Oeste 33 Sudoeste 0 -- -- 62
2018-11-25 11:00:00 15.5 12 Sudoeste 37 Sudoeste 0 -- -- 63
2018-11-25 10:00:00 14.4 9 Sur 28 Sur 0 -- -- 64
2018-11-25 09:00:00 13.1 9 Sur 26 Sudoeste 0 -- -- 67
2018-11-25 08:00:00 11.8 10 Sur 27 Sur 0 -- -- 68
2018-11-25 07:00:00 10.9 10 Sur 28 Sur 0 -- -- 67
2018-11-25 06:00:00 10.9 11 Sur 30 Sur 0 -- -- 66
2018-11-25 05:00:00 10.8 14 Sur 28 Sur 0 -- -- 66
2018-11-25 04:00:00 10.1 10 Sur 27 Sur 0 -- -- 67
2018-11-25 03:00:00 9.5 9 Sur 24 Sur 0 -- -- 68
2018-11-25 02:00:00 9.6 9 Sudoeste 26 Sur 0 -- -- 70
2018-11-25 01:00:00 9.3 12 Sur 28 Sudoeste 0 -- -- 72
2018-11-25 00:00:00 9.2 7 Sudoeste 24 Sur 0 -- -- 68
2018-11-24 23:00:00 8.7 6 Sur 25 Sur 0 -- -- 71
2018-11-24 22:00:00 9.5 5 Este 14 Norte 0 -- -- 68
2018-11-24 21:00:00 9.1 3 Norte 8 Noroeste 0 -- -- 71
2018-11-24 20:00:00 9 4 Este 9 Nordeste 0 -- -- 72
2018-11-24 19:00:00 7.5 3 Norte 10 Nordeste 0 -- -- 85
2018-11-24 18:00:00 9.7 0 Calma 8 Oeste 0 -- -- 76
2018-11-24 17:00:00 12.4 4 Oeste 21 Noroeste 0 -- -- 65
2018-11-24 16:00:00 14 11 Noroeste 20 Oeste 0 -- -- 55
2018-11-24 15:00:00 13.1 8 Noroeste 16 Oeste 0 -- -- 60
2018-11-24 14:00:00 12.6 6 Oeste 15 Oeste 0 -- -- 70
2018-11-24 13:00:00 12.2 5 Oeste 17 Oeste 0 -- -- 66
2018-11-24 12:00:00 11.9 7 Oeste 18 Sudoeste 0 -- -- 65
2018-11-24 11:00:00 11.3 9 Oeste 17 Oeste 0 -- -- 67
2018-11-24 10:00:00 9.8 3 Oeste 11 Oeste 0 -- -- 74
2018-11-24 09:00:00 8.2 2 Norte 10 Oeste 0 -- -- 80
2018-11-24 08:00:00 7.4 5 Norte 12 Norte 0 -- -- 83
2018-11-24 07:00:00 7.7 5 Norte 9 Norte 0 -- -- 81
2018-11-24 06:00:00 7.1 4 Norte 8 Nordeste 0 -- -- 86
2018-11-24 05:00:00 6.5 2 Noroeste 8 Noroeste 0 -- -- 89
2018-11-24 04:00:00 6.7 2 Oeste 6 Nordeste 0 -- -- 89
2018-11-24 03:00:00 6.3 2 Nordeste 5 Norte 0 -- -- 91
2018-11-24 02:00:00 7.2 0 Calma 6 Norte 0 -- -- 89
2018-11-24 01:00:00 6.7 0 Calma 9 Norte 0 -- -- 90
2018-11-24 00:00:00 7.4 3 Norte 7 Sudoeste 0 -- -- 89
2018-11-23 23:00:00 8.5 3 Sudeste 8 Sudoeste 0 -- -- 84
2018-11-23 22:00:00 10 4 Noroeste 12 Norte 0 -- -- 78
2018-11-23 21:00:00 10.2 7 Norte 12 Noroeste 0 -- -- 77
2018-11-23 20:00:00 11.4 6 Norte 13 Noroeste 0 -- -- 73
2018-11-23 19:00:00 11.6 6 Noroeste 15 Noroeste 0 -- -- 76
2018-11-23 18:00:00 12.4 4 Noroeste 12 Oeste 0 -- -- 74
2018-11-23 17:00:00 12.9 0 Calma 17 Noroeste 0 -- -- 78
2018-11-23 16:00:00 13.9 10 Oeste 22 Oeste 0 -- -- 73
2018-11-23 15:00:00 14.7 8 Oeste 20 Oeste 0 -- -- 78
2018-11-23 14:00:00 14.6 5 Noroeste 17 Noroeste 0 -- -- 78
2018-11-23 13:00:00 13.7 3 Noroeste 11 Oeste 0 -- -- 86
2018-11-23 12:00:00 12.2 2 Noroeste 14 Oeste 0.2 -- -- 94
2018-11-23 11:00:00 11.7 3 Sudoeste 8 Oeste 0 -- -- 95
2018-11-23 10:00:00 10.8 4 Sudeste 8 Este 0 -- -- 98
2018-11-23 09:00:00 10.4 2 Norte 11 Noroeste 0.2 -- -- 97
2018-11-23 08:00:00 10 2 Noroeste 6 Sur 0 -- -- 99
2018-11-23 07:00:00 9.9 3 Sur 7 Sur 0 -- -- 98
2018-11-23 06:00:00 9.9 3 Sudeste 5 Noroeste 0 -- -- 96
2018-11-23 05:00:00 10 0 Calma 9 Norte 0 -- -- 95
2018-11-23 04:00:00 9.9 0 Calma 11 Sudeste 0 -- -- 96
2018-11-23 03:00:00 9.9 6 Sudeste 14 Este 0 -- -- 95
2018-11-23 02:00:00 9.4 0 Calma 6 Sur 0 -- -- 94
2018-11-23 01:00:00 10.2 2 Nordeste 9 Este 0 -- -- 92
2018-11-23 00:00:00 10.8 6 Este 13 Este 0 -- -- 83
2018-11-22 23:00:00 10.1 0 Calma 5 Noroeste 0 -- -- 94
2018-11-22 22:00:00 10.5 3 Sudeste 9 Sur 0 -- -- 91
2018-11-22 21:00:00 10.6 5 Sudeste 9 Sudeste 0 -- -- 89
2018-11-22 20:00:00 11 0 Calma 6 Sur 0 -- -- 90
2018-11-22 19:00:00 11.9 4 Sur 12 Sur 0 -- -- 83
2018-11-22 18:00:00 12.3 8 Sudeste 12 Sudeste 0 -- -- 86
2018-11-22 17:00:00 13.5 4 Sudeste 7 Sudeste 0 -- -- 83
2018-11-22 16:00:00 14.2 2 Oeste 6 Norte 0 -- -- 80
2018-11-22 15:00:00 14 3 Noroeste 8 Este 0 -- -- 78
2018-11-22 14:00:00 13.8 5 Sudeste 9 Sudeste 0 -- -- 78
2018-11-22 13:00:00 13.3 4 Noroeste 10 Norte 0 -- -- 78
2018-11-22 12:00:00 13.3 0 Calma 5 Oeste 0 -- -- 75
2018-11-22 11:00:00 12.9 2 Noroeste 6 Norte 0 -- -- 75
2018-11-22 10:00:00 12.2 2 Nordeste 7 Norte 0 -- -- 77
2018-11-22 09:00:00 10.9 0 Calma 9 Nordeste 0 -- -- 82
2018-11-22 08:00:00 9.8 3 Norte 6 Nordeste 0 -- -- 87
2018-11-22 07:00:00 9.5 0 Calma 5 Sudoeste 0 -- -- 92
2018-11-22 06:00:00 10 0 Calma 4 Nordeste 0 -- -- 91
2018-11-22 05:00:00 10.9 5 Norte 9 Nordeste 0 -- -- 82
2018-11-22 04:00:00 11.1 0 Calma 8 Noroeste 0 -- -- 85
2018-11-22 03:00:00 11.4 5 Nordeste 11 Oeste 0 -- -- 81
2018-11-22 02:00:00 10.1 0 Calma 6 Sudeste 0 -- -- 91
2018-11-22 01:00:00 10.4 5 Sudeste 6 Sudeste 0 -- -- 88
2018-11-22 00:00:00 10.4 0 Calma 9 Sur 0 -- -- 88
2018-11-21 23:00:00 10.1 3 Sudeste 6 Sur 0 -- -- 90
2018-11-21 22:00:00 10.3 5 Sudeste 8 Sudeste 0 -- -- 89
2018-11-21 21:00:00 10.6 6 Sudeste 10 Sudeste 0 -- -- 85
2018-11-21 20:00:00 11.1 3 Sudeste 7 Sudeste 0 -- -- 88
2018-11-21 19:00:00 11.8 4 Sudeste 10 Sudeste 0 -- -- 81
2018-11-21 18:00:00 12.4 6 Sudeste 10 Sudeste 0 -- -- 79
2018-11-21 17:00:00 14.7 0 Calma 13 Sur 0 -- -- 66
2018-11-21 16:00:00 15.9 7 Sur 19 Sur 0 -- -- 63
2018-11-21 15:00:00 16.1 8 Sur 19 Sudoeste 0 -- -- 61
2018-11-21 14:00:00 16 5 Oeste 15 Oeste 0 -- -- 59
2018-11-21 13:00:00 15.2 5 Sudoeste 17 Sudeste 0 -- -- 61
2018-11-21 12:00:00 14.1 5 Sur 17 Sur 0 -- -- 67
2018-11-21 11:00:00 13.4 8 Sur 20 Sudoeste 0 -- -- 66
2018-11-21 10:00:00 12.1 6 Sudeste 19 Sudoeste 0 -- -- 70
2018-11-21 09:00:00 11.2 6 Sur 22 Sur 0 -- -- 69
2018-11-21 08:00:00 10.8 4 Oeste 20 Sudoeste 0 -- -- 69
2018-11-21 07:00:00 11.1 9 Sudoeste 31 Sudoeste 0 -- -- 67
2018-11-21 06:00:00 11.1 9 Sudoeste 22 Sudoeste 0 -- -- 70
2018-11-21 05:00:00 11.4 5 Sur 36 Sudoeste 0 -- -- 70
2018-11-21 04:00:00 12.3 10 Sudoeste 31 Oeste 0 -- -- 67
2018-11-21 03:00:00 12.5 8 Oeste 41 Oeste 0 -- -- 70
2018-11-21 02:00:00 12.7 9 Sudoeste 27 Oeste 0 -- -- 67
2018-11-21 01:00:00 12.6 9 Oeste 28 Noroeste 0 -- -- 69
2018-11-21 00:00:00 12.1 7 Sudoeste 23 Sudoeste 0 -- -- 71
2018-11-20 23:00:00 11.2 5 Sur 26 Sudoeste 0 -- -- 72
2018-11-20 22:00:00 11 4 Sur 17 Sur 0 -- -- 73
2018-11-20 21:00:00 11.5 4 Oeste 35 Sudoeste 0 -- -- 72
2018-11-20 20:00:00 11.5 12 Sur 41 Sudoeste 0 -- -- 81
2018-11-20 19:00:00 11.1 6 Este 17 Oeste 0.4 -- -- 93
2018-11-20 18:00:00 10.8 9 Noroeste 30 Noroeste 3.4 -- -- 97
2018-11-20 17:00:00 13.8 5 Sudoeste 20 Sur 0.2 -- -- 77
2018-11-20 16:00:00 14.2 6 Sudoeste 27 Sudoeste 0 -- -- 70
2018-11-20 15:00:00 14.7 8 Sur 24 Sur 0.2 -- -- 73
2018-11-20 14:00:00 14.4 10 Sur 26 Sudoeste 0.2 -- -- 74
2018-11-20 13:00:00 16 7 Sudoeste 33 Sur 0 -- -- 66
2018-11-20 12:00:00 16.7 10 Sur 31 Sudeste 0 -- -- 64
2018-11-20 11:00:00 15.2 11 Sur 28 Sur 0 -- -- 74
2018-11-20 10:00:00 13.6 8 Sur 30 Sudoeste 0 -- -- 96
2018-11-20 09:00:00 11.7 8 Sudoeste 26 Sudoeste 0 -- -- 98
2018-11-20 08:00:00 10.8 10 Sur 25 Sur 0 -- -- 100
2018-11-20 07:00:00 10.8 6 Sur 23 Sur 0 -- -- 100
2018-11-20 06:00:00 10.4 5 Sudeste 18 Sudoeste 0 -- -- 100
2018-11-20 05:00:00 10.3 9 Sur 18 Sur 0 -- -- 100
2018-11-20 04:00:00 10.3 8 Sur 15 Sudoeste 0 -- -- 100
2018-11-20 03:00:00 10.1 2 Este 9 Este 0 -- -- 100
2018-11-20 02:00:00 9.8 0 Calma 5 Nordeste 0 -- -- 100
2018-11-20 01:00:00 9.7 4 Sudeste 10 Sudeste 0 -- -- 100